Wetterdaten: Woche 26.07.10 - 01.08.10 (KW30)
Datum Zeit Temp. A. Feuchte A. Luftdruck Regen Wind Richtung Taupunkt Windchill Windben
26.07.2010 00:00 15,3 C 82 % 1014,5 hPa 0,0 l/m 1,3 km/h O-SO 12,2 C 15,3 C 0,7 km/h
26.07.2010 01:00 15,1 C 83 % 1014,6 hPa 0,0 l/m 0,0 km/h O 12,2 C 15,1 C 0,0 km/h
26.07.2010 02:00 14,9 C 84 % 1014,2 hPa 0,0 l/m 0,0 km/h SO 12,2 C 14,9 C 0,0 km/h
26.07.2010 03:00 14,6 C 85 % 1013,8 hPa 0,0 l/m 0,0 km/h SO 12,1 C 14,6 C 0,0 km/h
26.07.2010 04:00 14,5 C 87 % 1013,7 hPa 0,0 l/m 0,0 km/h NO 12,4 C 14,5 C 0,0 km/h
26.07.2010 05:00 14,5 C 88 % 1013,6 hPa 0,0 l/m 0,0 km/h SO 12,5 C 14,5 C 0,0 km/h
26.07.2010 06:00 14,3 C 90 % 1013,7 hPa 0,0 l/m 0,0 km/h SO 12,7 C 14,3 C 0,0 km/h
26.07.2010 07:00 14,9 C 90 % 1013,5 hPa 0,0 l/m 0,0 km/h N-NO 13,3 C 14,9 C 0,0 km/h
26.07.2010 08:00 15,6 C 89 % 1013,8 hPa 0,0 l/m 0,0 km/h O-NO 13,8 C 15,6 C 0,0 km/h
26.07.2010 09:00 18,0 C 82 % 1013,7 hPa 0,0 l/m 0,0 km/h SW 14,9 C 18,0 C 0,0 km/h
26.07.2010 10:00 20,3 C 75 % 1013,7 hPa 0,0 l/m 2,6 km/h N-NO 15,7 C 20,3 C 1,4 km/h
26.07.2010 11:00 24,7 C 58 % 1013,5 hPa 0,0 l/m 2,6 km/h W 15,9 C 24,7 C 1,4 km/h
26.07.2010 12:00 24,6 C 55 % 1013,1 hPa 0,0 l/m 13,6 km/h S-SW 14,9 C 23,0 C 7,6 km/h
26.07.2010 13:00 25,6 C 49 % 1012,6 hPa 0,0 l/m 0,0 km/h W-SW 14,1 C 25,6 C 0,0 km/h
26.07.2010 14:00 22,9 C 55 % 1012,5 hPa 0,0 l/m 7,8 km/h W-SW 13,4 C 22,5 C 4,3 km/h
26.07.2010 15:00 25,9 C 47 % 1012,0 hPa 0,0 l/m 0,0 km/h S-SW 13,7 C 25,9 C 0,0 km/h
26.07.2010 16:00 24,2 C 51 % 1011,8 hPa 0,0 l/m 1,9 km/h SW 13,4 C 24,2 C 1,1 km/h
26.07.2010 17:00 25,8 C 46 % 1011,0 hPa 0,0 l/m 11,0 km/h N-NW 13,3 C 24,9 C 6,1 km/h
26.07.2010 18:00 17,6 C 76 % 1012,7 hPa 1,4 l/m 0,0 km/h SO 13,3 C 17,6 C 0,0 km/h
26.07.2010 19:00 16,2 C 88 % 1012,7 hPa 1,8 l/m 0,0 km/h SO 14,2 C 16,2 C 0,0 km/h
26.07.2010 20:00 16,3 C 89 % 1012,5 hPa 0,0 l/m 0,0 km/h O 14,5 C 16,3 C 0,0 km/h
26.07.2010 21:00 16,1 C 89 % 1012,8 hPa 0,4 l/m 0,0 km/h W 14,3 C 16,1 C 0,0 km/h
26.07.2010 22:00 15,9 C 91 % 1013,2 hPa 3,9 l/m 2,6 km/h O 14,4 C 15,9 C 1,4 km/h
26.07.2010 23:00 15,4 C 92 % 1013,5 hPa 0,7 l/m 0,0 km/h SO 14,1 C 15,4 C 0,0 km/h
27.07.2010 00:00 15,8 C 93 % 1013,5 hPa 0,0 l/m 0,0 km/h SO 14,7 C 15,8 C 0,0 km/h
27.07.2010 01:00 15,6 C 93 % 1013,6 hPa 0,0 l/m 0,0 km/h S-SW 14,5 C 15,6 C 0,0 km/h
27.07.2010 02:00 15,3 C 94 % 1013,8 hPa 0,0 l/m 0,0 km/h S 14,3 C 15,3 C 0,0 km/h
27.07.2010 03:00 14,4 C 93 % 1013,9 hPa 0,0 l/m 0,0 km/h S 13,3 C 14,4 C 0,0 km/h
27.07.2010 04:00 14,4 C 93 % 1014,3 hPa 0,0 l/m 0,0 km/h S 13,3 C 14,4 C 0,0 km/h
27.07.2010 05:00 14,4 C 94 % 1014,6 hPa 0,0 l/m 0,0 km/h S 13,4 C 14,4 C 0,0 km/h
27.07.2010 06:00 14,3 C 94 % 1015,3 hPa 0,0 l/m 0,0 km/h S 13,3 C 14,3 C 0,0 km/h
27.07.2010 07:00 14,9 C 94 % 1015,8 hPa 0,0 l/m 0,0 km/h SW 13,9 C 14,9 C 0,0 km/h
27.07.2010 08:00 19,5 C 83 % 1016,0 hPa 0,0 l/m 0,0 km/h NO 16,5 C 19,5 C 0,0 km/h
27.07.2010 09:00 22,4 C 66 % 1016,6 hPa 0,0 l/m 0,0 km/h O-SO 15,7 C 22,4 C 0,0 km/h
27.07.2010 10:00 25,6 C 53 % 1016,8 hPa 0,0 l/m 0,0 km/h N 15,3 C 25,6 C 0,0 km/h
27.07.2010 11:00 24,8 C 54 % 1016,8 hPa 0,0 l/m 0,0 km/h N-NO 14,8 C 24,8 C 0,0 km/h
27.07.2010 12:00 24,3 C 49 % 1016,8 hPa 0,0 l/m 0,0 km/h SW 12,9 C 24,3 C 0,0 km/h
27.07.2010 13:00 24,1 C 48 % 1016,8 hPa 0,0 l/m 13,0 km/h N-NO 12,4 C 22,6 C 7,2 km/h
27.07.2010 14:00 25,4 C 47 % 1016,6 hPa 0,0 l/m 1,9 km/h S 13,3 C 25,4 C 1,1 km/h
27.07.2010 15:00 28,6 C 40 % 1016,5 hPa 0,0 l/m 1,9 km/h N-NO 13,7 C 28,6 C 1,1 km/h
27.07.2010 16:00 27,1 C 41 % 1016,4 hPa 0,0 l/m 0,0 km/h N-NW 12,7 C 27,1 C 0,0 km/h
27.07.2010 17:00 26,1 C 42 % 1016,6 hPa 0,0 l/m 0,0 km/h N-NO 12,2 C 26,1 C 0,0 km/h
27.07.2010 18:00 25,4 C 44 % 1016,6 hPa 0,0 l/m 3,9 km/h N-NO 12,2 C 25,4 C 2,2 km/h
27.07.2010 19:00 27,1 C 41 % 1017,0 hPa 0,0 l/m 9,7 km/h N-NO 12,7 C 26,5 C 5,4 km/h
27.07.2010 20:00 20,4 C 59 % 1017,1 hPa 0,0 l/m 0,0 km/h NO 12,1 C 20,4 C 0,0 km/h
27.07.2010 21:00 16,8 C 74 % 1017,6 hPa 0,0 l/m 0,0 km/h N-NO 12,1 C 16,8 C 0,0 km/h
27.07.2010 22:00 14,9 C 82 % 1017,8 hPa 0,0 l/m 0,0 km/h NO 11,9 C 14,9 C 0,0 km/h
27.07.2010 23:00 14,1 C 86 % 1017,8 hPa 0,0 l/m 0,0 km/h S-SO 11,8 C 14,1 C 0,0 km/h
28.07.2010 00:00 14,1 C 86 % 1018,1 hPa 0,0 l/m 0,0 km/h NO 11,8 C 14,1 C 0,0 km/h
28.07.2010 01:00 14,4 C 85 % 1017,9 hPa 0,0 l/m 0,0 km/h O 11,9 C 14,4 C 0,0 km/h
28.07.2010 02:00 14,3 C 84 % 1018,2 hPa 0,0 l/m 0,0 km/h SO 11,6 C 14,3 C 0,0 km/h
28.07.2010 03:00 13,9 C 85 % 1017,8 hPa 0,0 l/m 0,0 km/h SO 11,4 C 13,9 C 0,0 km/h
28.07.2010 04:00 14,2 C 86 % 1017,5 hPa 0,0 l/m 6,5 km/h SO 11,9 C 14,2 C 3,6 km/h
28.07.2010 05:00 12,7 C 88 % 1017,4 hPa 0,0 l/m 0,0 km/h O-SO 10,8 C 12,7 C 0,0 km/h
28.07.2010 06:00 13,1 C 89 % 1017,2 hPa 0,0 l/m 0,0 km/h NO 11,3 C 13,1 C 0,0 km/h
28.07.2010 07:00 14,6 C 87 % 1017,0 hPa 0,0 l/m 0,0 km/h SO 12,5 C 14,6 C 0,0 km/h
28.07.2010 08:00 15,8 C 84 % 1017,0 hPa 0,0 l/m 0,0 km/h SO 13,1 C 15,8 C 0,0 km/h
28.07.2010 09:00 16,7 C 85 % 1017,3 hPa 0,0 l/m 0,0 km/h NO 14,2 C 16,7 C 0,0 km/h
28.07.2010 10:00 17,6 C 85 % 1017,5 hPa 0,4 l/m 0,0 km/h NO 15,0 C 17,6 C 0,0 km/h
28.07.2010 11:00 18,9 C 83 % 1017,8 hPa 0,7 l/m 0,0 km/h S-SW 15,9 C 18,9 C 0,0 km/h
28.07.2010 12:00 18,4 C 85 % 1017,1 hPa 0,4 l/m 6,5 km/h W 15,8 C 18,4 C 3,6 km/h
28.07.2010 13:00 18,1 C 85 % 1016,8 hPa 0,0 l/m 0,0 km/h S-SW 15,5 C 18,1 C 0,0 km/h
28.07.2010 14:00 19,4 C 80 % 1016,2 hPa 0,0 l/m 16,8 km/h SW 15,9 C 16,1 C 9,4 km/h
28.07.2010 15:00 19,6 C 80 % 1015,8 hPa 0,0 l/m 22,0 km/h W-SW 16,1 C 15,3 C 12,2 km/h
28.07.2010 16:00 20,6 C 75 % 1015,1 hPa 0,4 l/m 5,8 km/h SW 16,0 C 20,6 C 3,2 km/h
28.07.2010 17:00 24,1 C 74 % 1014,5 hPa 0,0 l/m 4,5 km/h SW 19,2 C 24,1 C 2,5 km/h
28.07.2010 18:00 26,4 C 62 % 1013,7 hPa 0,0 l/m 21,4 km/h SW 18,5 C 24,3 C 11,9 km/h
28.07.2010 19:00 22,1 C 70 % 1013,3 hPa 0,0 l/m 23,3 km/h SW 16,4 C 18,4 C 13,0 km/h
28.07.2010 20:00 21,3 C 72 % 1013,4 hPa 0,0 l/m 18,8 km/h O-NO 16,0 C 18,1 C 10,4 km/h
28.07.2010 21:00 19,5 C 78 % 1013,8 hPa 0,0 l/m 0,0 km/h NO 15,6 C 19,5 C 0,0 km/h
28.07.2010 22:00 17,9 C 86 % 1014,0 hPa 0,0 l/m 0,0 km/h S-SO 15,5 C 17,9 C 0,0 km/h
28.07.2010 23:00 16,9 C 88 % 1013,6 hPa 0,0 l/m 0,0 km/h O-SO 14,9 C 16,9 C 0,0 km/h
29.07.2010 00:00 15,9 C 91 % 1013,3 hPa 0,0 l/m 0,0 km/h O-SO 14,4 C 15,9 C 0,0 km/h
29.07.2010 01:00 15,9 C 92 % 1012,5 hPa 0,0 l/m 0,0 km/h SO 14,6 C 15,9 C 0,0 km/h
29.07.2010 02:00 15,0 C 93 % 1011,8 hPa 0,0 l/m 0,0 km/h SO 13,9 C 15,0 C 0,0 km/h
29.07.2010 03:00 15,1 C 93 % 1010,8 hPa 0,0 l/m 0,0 km/h O-SO 14,0 C 15,1 C 0,0 km/h
29.07.2010 04:00 15,2 C 94 % 1010,1 hPa 0,0 l/m 0,0 km/h SO 14,2 C 15,2 C 0,0 km/h
29.07.2010 05:00 14,5 C 94 % 1010,8 hPa 3,2 l/m 0,0 km/h SO 13,5 C 14,5 C 0,0 km/h
29.07.2010 06:00 14,4 C 94 % 1010,3 hPa 0,7 l/m 0,0 km/h NO 13,4 C 14,4 C 0,0 km/h
29.07.2010 07:00 15,0 C 94 % 1010,5 hPa 0,0 l/m 0,0 km/h N 14,0 C 15,0 C 0,0 km/h
29.07.2010 08:00 16,4 C 92 % 1010,7 hPa 0,0 l/m 3,2 km/h NO 15,1 C 16,4 C 1,8 km/h
29.07.2010 09:00 19,9 C 87 % 1010,4 hPa 0,0 l/m 0,0 km/h NO 17,7 C 19,9 C 0,0 km/h
29.07.2010 10:00 20,4 C 79 % 1010,5 hPa 0,0 l/m 0,0 km/h NW 16,6 C 20,4 C 0,0 km/h
29.07.2010 11:00 20,9 C 70 % 1010,4 hPa 0,0 l/m 0,0 km/h W 15,2 C 20,9 C 0,0 km/h
29.07.2010 12:00 22,5 C 60 % 1010,7 hPa 0,0 l/m 0,0 km/h W-NW 14,3 C 22,5 C 0,0 km/h
29.07.2010 13:00 23,8 C 50 % 1010,4 hPa 0,0 l/m 7,1 km/h N 12,7 C 23,6 C 4,0 km/h
29.07.2010 14:00 21,9 C 55 % 1010,6 hPa 0,0 l/m 1,9 km/h NW 12,4 C 21,9 C 1,1 km/h
29.07.2010 15:00 20,5 C 61 % 1010,9 hPa 0,0 l/m 0,0 km/h SW 12,7 C 20,5 C 0,0 km/h
29.07.2010 16:00 23,3 C 54 % 1010,9 hPa 0,0 l/m 20,7 km/h N-NW 13,5 C 20,4 C 11,5 km/h
29.07.2010 17:00 19,8 C 59 % 1011,4 hPa 0,0 l/m 0,0 km/h SW 11,6 C 19,8 C 0,0 km/h
29.07.2010 18:00 16,2 C 81 % 1012,0 hPa 1,4 l/m 0,0 km/h W-SW 12,9 C 16,2 C 0,0 km/h
29.07.2010 19:00 16,4 C 83 % 1012,4 hPa 0,0 l/m 0,0 km/h S 13,5 C 16,4 C 0,0 km/h
29.07.2010 20:00 15,2 C 85 % 1012,7 hPa 0,0 l/m 0,0 km/h O-SO 12,7 C 15,2 C 0,0 km/h
29.07.2010 21:00 14,3 C 89 % 1012,9 hPa 0,0 l/m 0,0 km/h O-SO 12,5 C 14,3 C 0,0 km/h
29.07.2010 22:00 14,1 C 90 % 1013,4 hPa 0,0 l/m 0,0 km/h SO 12,5 C 14,1 C 0,0 km/h
29.07.2010 23:00 13,9 C 91 % 1013,2 hPa 0,0 l/m 0,0 km/h O-NO 12,5 C 13,9 C 0,0 km/h
30.07.2010 00:00 13,8 C 92 % 1013,5 hPa 0,0 l/m 0,0 km/h O-NO 12,5 C 13,8 C 0,0 km/h
30.07.2010 01:00 13,8 C 92 % 1013,2 hPa 0,0 l/m 0,0 km/h O-NO 12,5 C 13,8 C 0,0 km/h
30.07.2010 02:00 13,8 C 92 % 1013,1 hPa 0,0 l/m 0,0 km/h O-NO 12,5 C 13,8 C 0,0 km/h
30.07.2010 03:00 13,9 C 93 % 1012,9 hPa 0,0 l/m 0,0 km/h O 12,8 C 13,9 C 0,0 km/h
30.07.2010 04:00 13,6 C 93 % 1013,1 hPa 0,7 l/m 0,0 km/h O 12,5 C 13,6 C 0,0 km/h
30.07.2010 05:00 13,5 C 93 % 1012,9 hPa 0,0 l/m 0,0 km/h O 12,4 C 13,5 C 0,0 km/h
30.07.2010 06:00 13,3 C 94 % 1013,2 hPa 0,0 l/m 0,0 km/h O-SO 12,4 C 13,3 C 0,0 km/h
30.07.2010 07:00 13,5 C 94 % 1013,5 hPa 0,0 l/m 0,0 km/h NO 12,6 C 13,5 C 0,0 km/h
30.07.2010 08:00 18,6 C 91 % 1014,0 hPa 0,0 l/m 0,0 km/h W 17,1 C 18,6 C 0,0 km/h
30.07.2010 09:00 19,2 C 78 % 1014,2 hPa 0,0 l/m 0,0 km/h S-SO 15,3 C 19,2 C 0,0 km/h
30.07.2010 10:00 23,2 C 61 % 1014,6 hPa 0,0 l/m 0,6 km/h SO 15,3 C 23,2 C 0,4 km/h
30.07.2010 11:00 26,7 C 50 % 1014,4 hPa 0,0 l/m 0,0 km/h N 15,4 C 26,7 C 0,0 km/h
30.07.2010 12:00 22,6 C 59 % 1014,4 hPa 0,0 l/m 13,0 km/h W-SW 14,2 C 20,8 C 7,2 km/h
30.07.2010 13:00 23,8 C 53 % 1014,4 hPa 0,0 l/m 13,0 km/h W 13,6 C 22,2 C 7,2 km/h
30.07.2010 14:00 24,2 C 49 % 1014,2 hPa 0,0 l/m 5,2 km/h W-SW 12,8 C 24,2 C 2,9 km/h
30.07.2010 15:00 27,3 C 43 % 1014,2 hPa 0,0 l/m 7,8 km/h SO 13,6 C 27,0 C 4,3 km/h
30.07.2010 16:00 22,3 C 53 % 1014,7 hPa 0,0 l/m 18,8 km/h O-SO 12,2 C 19,4 C 10,4 km/h
30.07.2010 17:00 19,8 C 63 % 1015,0 hPa 0,0 l/m 8,4 km/h S-SO 12,5 C 19,0 C 4,7 km/h
30.07.2010 18:00 22,5 C 53 % 1015,0 hPa 0,0 l/m 1,3 km/h O-NO 12,4 C 22,5 C 0,7 km/h
30.07.2010 19:00 26,5 C 46 % 1015,1 hPa 0,0 l/m 0,0 km/h O-NO 13,9 C 26,5 C 0,0 km/h
30.07.2010 20:00 18,8 C 67 % 1015,1 hPa 0,0 l/m 0,0 km/h SO 12,5 C 18,8 C 0,0 km/h
30.07.2010 21:00 15,1 C 79 % 1015,3 hPa 0,0 l/m 0,0 km/h SO 11,5 C 15,1 C 0,0 km/h
30.07.2010 22:00 13,2 C 85 % 1015,6 hPa 0,0 l/m 0,0 km/h S 10,7 C 13,2 C 0,0 km/h
30.07.2010 23:00 12,7 C 87 % 1015,8 hPa 0,0 l/m 0,0 km/h O 10,6 C 12,7 C 0,0 km/h
31.07.2010 00:00 12,3 C 88 % 1015,8 hPa 0,0 l/m 0,0 km/h N-NO 10,4 C 12,3 C 0,0 km/h
31.07.2010 01:00 11,8 C 89 % 1015,9 hPa 0,0 l/m 0,0 km/h O-SO 10,0 C 11,8 C 0,0 km/h
31.07.2010 02:00 10,9 C 90 % 1016,0 hPa 0,0 l/m 3,2 km/h N-NO 9,3 C 10,9 C 1,8 km/h
31.07.2010 03:00 10,5 C 91 % 1015,9 hPa 0,0 l/m 0,0 km/h NO 9,1 C 10,5 C 0,0 km/h
31.07.2010 04:00 10,2 C 92 % 1015,5 hPa 0,0 l/m 0,0 km/h NO 9,0 C 10,2 C 0,0 km/h
31.07.2010 05:00 9,8 C 92 % 1015,8 hPa 0,0 l/m 0,0 km/h S 8,6 C 9,8 C 0,0 km/h
31.07.2010 06:00 9,6 C 93 % 1015,7 hPa 0,0 l/m 0,0 km/h SO 8,5 C 9,6 C 0,0 km/h
31.07.2010 07:00 10,8 C 93 % 1016,1 hPa 0,0 l/m 0,0 km/h O 9,7 C 10,8 C 0,0 km/h
31.07.2010 08:00 20,1 C 73 % 1016,4 hPa 0,0 l/m 0,0 km/h W-NW 15,1 C 20,1 C 0,0 km/h
31.07.2010 09:00 24,2 C 52 % 1016,3 hPa 0,0 l/m 0,0 km/h SW 13,7 C 24,2 C 0,0 km/h
31.07.2010 10:00 25,8 C 49 % 1016,2 hPa 0,0 l/m 0,0 km/h N-NO 14,3 C 25,8 C 0,0 km/h
31.07.2010 11:00 26,6 C 44 % 1016,0 hPa 0,0 l/m 0,0 km/h N-NO 13,3 C 26,6 C 0,0 km/h
31.07.2010 12:00 25,7 C 45 % 1015,5 hPa 0,0 l/m 0,0 km/h S 12,9 C 25,7 C 0,0 km/h
31.07.2010 13:00 27,5 C 44 % 1015,1 hPa 0,0 l/m 0,0 km/h S-SW 14,1 C 27,5 C 0,0 km/h
31.07.2010 14:00 28,2 C 40 % 1014,7 hPa 0,0 l/m 25,9 km/h W 13,3 C 26,4 C 14,4 km/h
31.07.2010 15:00 29,9 C 36 % 1014,4 hPa 0,0 l/m 16,2 km/h W 13,2 C 29,2 C 9,0 km/h
31.07.2010 16:00 32,4 C 32 % 1014,0 hPa 0,0 l/m 10,4 km/h S 13,6 C 32,3 C 5,8 km/h
31.07.2010 17:00 33,9 C 28 % 1013,9 hPa 0,0 l/m 14,9 km/h O 12,8 C 33,9 C 8,3 km/h
31.07.2010 18:00 34,4 C 24 % 1013,7 hPa 0,0 l/m 1,9 km/h W-NW 10,9 C 34,4 C 1,1 km/h
31.07.2010 19:00 30,7 C 28 % 1013,6 hPa 0,0 l/m 0,0 km/h NO 10,1 C 30,7 C 0,0 km/h
31.07.2010 20:00 22,3 C 51 % 1013,8 hPa 0,0 l/m 0,0 km/h O-NO 11,7 C 22,3 C 0,0 km/h
31.07.2010 21:00 18,3 C 61 % 1014,3 hPa 0,0 l/m 0,0 km/h O-NO 10,6 C 18,3 C 0,0 km/h
31.07.2010 22:00 16,7 C 69 % 1014,7 hPa 0,0 l/m 0,0 km/h O 11,0 C 16,7 C 0,0 km/h
31.07.2010 23:00 15,6 C 75 % 1014,6 hPa 0,0 l/m 0,0 km/h O 11,2 C 15,6 C 0,0 km/h
01.08.2010 00:00 14,9 C 77 % 1014,7 hPa 0,0 l/m 0,0 km/h NO 10,9 C 14,9 C 0,0 km/h
01.08.2010 01:00 14,5 C 79 % 1014,4 hPa 0,0 l/m 0,0 km/h NO 10,9 C 14,5 C 0,0 km/h
01.08.2010 02:00 14,3 C 80 % 1014,3 hPa 0,0 l/m 0,0 km/h SO 10,9 C 14,3 C 0,0 km/h
01.08.2010 03:00 14,7 C 79 % 1013,6 hPa 0,0 l/m 0,0 km/h SO 11,1 C 14,7 C 0,0 km/h
01.08.2010 04:00 14,6 C 79 % 1013,9 hPa 0,0 l/m 0,0 km/h NO 11,0 C 14,6 C 0,0 km/h
01.08.2010 05:00 14,4 C 81 % 1014,1 hPa 0,0 l/m 0,0 km/h SO 11,2 C 14,4 C 0,0 km/h
01.08.2010 06:00 14,1 C 82 % 1014,0 hPa 0,0 l/m 5,8 km/h SO 11,1 C 14,1 C 3,2 km/h
01.08.2010 07:00 15,6 C 80 % 1014,1 hPa 0,0 l/m 0,0 km/h SO 12,2 C 15,6 C 0,0 km/h
01.08.2010 08:00 21,8 C 64 % 1014,4 hPa 0,0 l/m 0,0 km/h N-NW 14,7 C 21,8 C 0,0 km/h
01.08.2010 09:00 27,9 C 48 % 1014,3 hPa 0,0 l/m 0,0 km/h W-NW 15,9 C 27,9 C 0,0 km/h
01.08.2010 10:00 30,3 C 42 % 1014,4 hPa 0,0 l/m 7,1 km/h SW 15,9 C 30,2 C 4,0 km/h
01.08.2010 11:00 30,2 C 39 % 1014,0 hPa 0,0 l/m 0,0 km/h W-SW 14,7 C 30,2 C 0,0 km/h
01.08.2010 12:00 29,6 C 38 % 1013,8 hPa 0,0 l/m 14,3 km/h W 13,8 C 28,9 C 7,9 km/h
01.08.2010 13:00 30,6 C 37 % 1013,5 hPa 0,0 l/m 7,8 km/h W-SW 14,2 C 30,5 C 4,3 km/h
01.08.2010 14:00 29,9 C 39 % 1013,1 hPa 0,0 l/m 8,4 km/h SO 14,4 C 29,7 C 4,7 km/h
01.08.2010 15:00 34,8 C 33 % 1012,5 hPa 0,0 l/m 0,6 km/h W-SW 16,1 C 34,8 C 0,4 km/h
01.08.2010 16:00 34,2 C 31 % 1012,3 hPa 0,0 l/m 18,8 km/h W 14,6 C 34,2 C 10,4 km/h
01.08.2010 17:00 30,2 C 41 % 1012,0 hPa 0,0 l/m 7,8 km/h SW 15,5 C 30,1 C 4,3 km/h
01.08.2010 18:00 28,8 C 46 % 1011,8 hPa 0,0 l/m 4,5 km/h S 16,0 C 28,8 C 2,5 km/h
01.08.2010 19:00 27,3 C 50 % 1011,8 hPa 0,0 l/m 11,0 km/h W 15,9 C 26,6 C 6,1 km/h
01.08.2010 20:00 25,3 C 56 % 1012,4 hPa 0,0 l/m 0,0 km/h S-SW 15,9 C 25,3 C 0,0 km/h
01.08.2010 21:00 19,4 C 79 % 1014,3 hPa 0,0 l/m 21,4 km/h S-SO 15,7 C 15,2 C 11,9 km/h
01.08.2010 22:00 19,3 C 78 % 1014,1 hPa 0,0 l/m 0,0 km/h S 15,4 C 19,3 C 0,0 km/h
01.08.2010 23:00 20,4 C 72 % 1014,0 hPa 0,0 l/m 13,0 km/h S-SO 15,2 C 18,2 C 7,2 km/h
Min-Datum _ 31.07.10 31.07.10 29.07.10 - 26.07.10 - 31.07.10 31.07.10 26.07.10
_ Min-Zeit 06:30 18:30 04:30 - 01:30 - 06:30 06:30 01:30
Minimum _ 9,6 C 24 % 1010,1 hPa - 0,0 km/h - 8,5 C 9,6 C 0,0 km/h
Max-Datum _ 01.08.10 27.07.10 28.07.10 26.07.10 31.07.10 - 28.07.10 01.08.10 31.07.10
_ Max-Zeit 15:30 02:30 02:30 22:30 14:30 - 17:30 15:30 14:30
Maximum _ 34,8 C 94 % 1018,2 hPa 3,9 l/m 25,9 km/h
W
- 19,2 C 34,8 C 14,4 km/h
W
Durchschnitt _ 19,5 C 72 % 1014,2 hPa #16,0 l/m 2,9 km/h SO 13,4 C 19,2 C 1,6 km/h